Time;durP1;ratioP1;P1;durP2;ratioP2;P2;SDS_P1;SDS_P2;PMS_P1;PMS_P2;Temp;Humidity;BMP_temperature;BMP_pressure;BME280_temperature;BME280_humidity;BME280_pressure;Samples;Min_cycle;Max_cycle;Signal;HPM_P1;HPM_P2
2023/04/18 00:02:17;;;;;;;8.47;4.30;;;;;;;18.53;52.56;100751.25;5046190;28;20203;-62
2023/04/18 00:04:45;;;;;;;6.37;4.10;;;;;;;18.47;52.44;100741.25;5030279;28;20180;-62
2023/04/18 00:07:13;;;;;;;8.23;4.57;;;;;;;18.44;52.82;100744.88;5011435;28;20283;-62
2023/04/18 00:09:40;;;;;;;9.20;5.40;;;;;;;18.40;51.86;100738.22;5025705;28;20455;-62
2023/04/18 00:12:05;;;;;;;13.17;5.50;;;;;;;18.37;51.64;100738.97;5031541;28;20529;-61
2023/04/18 00:14:33;;;;;;;7.70;5.17;;;;;;;18.37;51.80;100741.81;5037851;28;20462;-62
2023/04/18 00:17:00;;;;;;;7.27;5.33;;;;;;;18.39;51.95;100732.88;5051685;28;20236;-62
2023/04/18 00:19:26;;;;;;;9.97;5.27;;;;;;;18.44;51.56;100738.31;5032445;28;20427;-62
2023/04/18 00:21:52;;;;;;;10.20;5.70;;;;;;;18.43;51.43;100728.94;5048536;28;21039;-62
2023/04/18 00:24:18;;;;;;;11.77;4.80;;;;;;;18.42;51.77;100732.97;5032320;28;20426;-62
2023/04/18 00:26:43;;;;;;;9.10;5.10;;;;;;;18.49;51.55;100720.88;5022738;28;20165;-62
2023/04/18 00:29:09;;;;;;;8.73;5.03;;;;;;;18.56;51.71;100721.88;5027468;28;20882;-62
2023/04/18 00:31:34;;;;;;;8.50;5.03;;;;;;;18.66;51.54;100723.38;5034202;28;20176;-62
2023/04/18 00:34:00;;;;;;;8.93;4.73;;;;;;;18.69;51.97;100719.75;5026320;28;20180;-62
2023/04/18 00:36:26;;;;;;;7.73;5.00;;;;;;;18.74;51.79;100720.31;5032361;28;20173;-62
2023/04/18 00:38:52;;;;;;;7.30;4.20;;;;;;;18.77;51.89;100716.69;5035597;28;20184;-62
2023/04/18 00:41:17;;;;;;;5.60;4.30;;;;;;;18.78;52.02;100712.63;5033952;28;20414;-62
2023/04/18 00:43:43;;;;;;;7.90;4.63;;;;;;;18.76;51.95;100709.31;5031984;28;20175;-62
2023/04/18 00:46:09;;;;;;;6.80;4.43;;;;;;;18.74;52.35;100708.84;5033499;28;20172;-62
2023/04/18 00:48:35;;;;;;;8.47;5.07;;;;;;;18.70;52.55;100713.66;5030788;28;20181;-62
2023/04/18 00:51:00;;;;;;;7.43;4.60;;;;;;;18.66;52.76;100709.88;5033043;28;20451;-62
2023/04/18 00:53:26;;;;;;;5.70;4.17;;;;;;;18.64;52.65;100714.31;5032502;28;20165;-62
2023/04/18 00:55:51;;;;;;;7.20;4.63;;;;;;;18.61;53.07;100712.22;5033148;28;20596;-62
2023/04/18 00:58:17;;;;;;;7.93;3.83;;;;;;;18.57;53.28;100711.28;5045476;28;20184;-62
2023/04/18 01:00:42;;;;;;;6.50;4.13;;;;;;;18.53;53.25;100711.22;5051597;28;20190;-62
2023/04/18 01:03:09;;;;;;;7.67;4.23;;;;;;;18.49;53.62;100713.16;5037596;28;20241;-62
2023/04/18 01:05:35;;;;;;;5.13;3.90;;;;;;;18.46;53.89;100708.16;5044808;28;20930;-62
2023/04/18 01:08:00;;;;;;;7.33;4.40;;;;;;;18.44;53.83;100704.00;5027603;28;20504;-62
2023/04/18 01:10:26;;;;;;;5.83;3.90;;;;;;;18.42;54.04;100697.84;5031024;28;20239;-62
2023/04/18 01:13:11;;;;;;;5.23;4.00;;;;;;;18.39;54.29;100692.84;5033282;28;20223;-62
2023/04/18 01:15:39;;;;;;;7.40;4.20;;;;;;;18.37;54.52;100696.06;5031859;28;20238;-62
2023/04/18 01:18:06;;;;;;;10.53;4.20;;;;;;;18.35;54.31;100698.50;5027711;28;20513;-62
2023/04/18 01:20:33;;;;;;;5.27;4.23;;;;;;;18.36;54.45;100699.34;5032184;28;20894;-62
2023/04/18 01:22:59;;;;;;;8.17;4.20;;;;;;;18.37;54.84;100701.78;5034453;28;20484;-62
2023/04/18 01:25:24;;;;;;;7.80;4.20;;;;;;;18.36;54.89;100688.72;5035064;28;20411;-62
2023/04/18 01:27:50;;;;;;;7.47;4.07;;;;;;;18.38;54.72;100692.03;5037588;28;20938;-62
2023/04/18 01:30:16;;;;;;;7.70;4.90;;;;;;;18.33;55.20;100680.91;5035530;28;20231;-62
2023/04/18 01:32:41;;;;;;;6.50;3.93;;;;;;;18.35;55.08;100683.34;5029454;28;20187;-62
2023/04/18 01:35:07;;;;;;;6.27;4.10;;;;;;;18.30;55.20;100675.88;5018033;28;20187;-62
2023/04/18 01:37:32;;;;;;;5.53;4.27;;;;;;;18.29;55.14;100677.09;5035909;28;20202;-61
2023/04/18 01:39:58;;;;;;;8.87;4.10;;;;;;;18.27;55.44;100676.59;5035957;28;20165;-62
2023/04/18 01:42:24;;;;;;;8.67;4.40;;;;;;;18.27;55.57;100672.94;5039095;28;20603;-62
2023/04/18 01:44:49;;;;;;;7.60;4.87;;;;;;;18.27;55.44;100670.88;5052407;28;20407;-62
2023/04/18 01:47:15;;;;;;;7.60;4.07;;;;;;;18.26;55.50;100666.38;5053863;28;20555;-62
2023/04/18 01:49:45;;;;;;;5.90;4.30;;;;;;;18.26;55.57;100654.94;5043551;28;20200;-62
2023/04/18 01:52:13;;;;;;;5.27;3.30;;;;;;;18.23;55.88;100655.69;5042011;28;20271;-62
2023/04/18 01:54:38;;;;;;;5.60;3.90;;;;;;;18.22;56.46;100654.03;5026602;28;20492;-62
2023/04/18 01:57:04;;;;;;;6.37;4.37;;;;;;;18.21;55.92;100652.38;5034283;28;20411;-62
2023/04/18 01:59:29;;;;;;;6.50;4.27;;;;;;;18.19;55.88;100654.78;5017027;28;20999;-62
2023/04/18 02:01:55;;;;;;;6.13;4.43;;;;;;;18.18;55.84;100653.13;5048926;28;20303;-62
2023/04/18 02:04:20;;;;;;;6.50;4.10;;;;;;;18.22;55.72;100658.91;5054150;28;20237;-62
2023/04/18 02:06:46;;;;;;;5.60;4.17;;;;;;;18.21;55.84;100655.22;5043367;28;20212;-62
2023/04/18 02:09:11;;;;;;;6.07;4.50;;;;;;;18.24;55.58;100654.50;5035064;28;20224;-62
2023/04/18 02:11:37;;;;;;;6.50;3.97;;;;;;;18.26;55.61;100666.38;5037661;28;20184;-62
2023/04/18 02:14:02;;;;;;;9.80;4.03;;;;;;;18.25;55.44;100655.31;5035691;28;20188;-62
2023/04/18 02:16:27;;;;;;;9.37;4.17;;;;;;;18.28;55.43;100651.72;5035831;28;20659;-61
2023/04/18 02:18:53;;;;;;;9.00;3.97;;;;;;;18.31;55.65;100648.13;5033402;28;20195;-62
2023/04/18 02:21:18;;;;;;;8.10;4.43;;;;;;;18.34;55.66;100656.81;5034927;28;20631;-62
2023/04/18 02:23:44;;;;;;;5.53;3.70;;;;;;;18.36;55.31;100656.47;5035451;28;20240;-62
2023/04/18 02:26:09;;;;;;;5.83;3.53;;;;;;;18.37;55.41;100661.78;5043326;28;20176;-62
2023/04/18 02:28:37;;;;;;;5.23;3.57;;;;;;;18.37;55.51;100658.91;5034466;28;20167;-62
2023/04/18 02:31:03;;;;;;;6.70;4.67;;;;;;;18.38;55.48;100659.75;5033996;28;20231;-62
2023/04/18 02:33:29;;;;;;;5.63;3.80;;;;;;;18.38;55.67;100663.47;5033818;28;20447;-62
2023/04/18 02:35:54;;;;;;;8.07;3.67;;;;;;;18.34;55.66;100662.53;5050855;28;20180;-62
2023/04/18 02:38:19;;;;;;;9.70;4.57;;;;;;;18.34;55.60;100667.41;5053863;28;20160;-62
2023/04/18 02:40:45;;;;;;;5.33;3.90;;;;;;;18.30;55.90;100667.31;5049342;28;20184;-62
2023/04/18 02:43:10;;;;;;;7.23;4.10;;;;;;;18.28;56.01;100666.00;5032990;28;20297;-62
2023/04/18 02:45:36;;;;;;;5.83;3.90;;;;;;;18.27;55.88;100662.31;5035815;28;20168;-62
2023/04/18 02:48:01;;;;;;;5.73;3.97;;;;;;;18.24;56.09;100654.50;5017578;28;20207;-61
2023/04/18 02:50:28;;;;;;;5.10;3.80;;;;;;;18.24;56.23;100663.06;5028971;28;20191;-62
2023/04/18 02:52:53;;;;;;;6.67;3.80;;;;;;;18.26;56.29;100659.84;5035460;28;20184;-62
2023/04/18 02:55:20;;;;;;;4.80;3.60;;;;;;;18.24;56.40;100654.50;5033163;28;20426;-62
2023/04/18 02:57:46;;;;;;;7.13;4.10;;;;;;;18.24;56.16;100650.78;5033294;28;20270;-62
2023/04/18 03:00:12;;;;;;;7.70;3.53;;;;;;;18.25;56.08;100652.44;5049873;28;20536;-62
2023/04/18 03:02:38;;;;;;;6.80;3.93;;;;;;;18.28;56.28;100652.56;5014883;28;20165;-62
2023/04/18 03:05:04;;;;;;;4.83;3.60;;;;;;;18.27;56.26;100655.78;5030420;28;20422;-62
2023/04/18 03:07:30;;;;;;;5.70;3.83;;;;;;;18.24;56.37;100653.66;5035103;28;20236;-61
2023/04/18 03:09:55;;;;;;;6.13;4.03;;;;;;;18.22;56.15;100648.31;5032997;28;21113;-62
2023/04/18 03:12:21;;;;;;;5.53;4.20;;;;;;;18.21;56.47;100652.38;5033625;28;20204;-62
2023/04/18 03:14:46;;;;;;;6.67;3.90;;;;;;;18.20;56.56;100655.59;5032139;28;20312;-62
2023/04/18 03:17:12;;;;;;;6.03;4.23;;;;;;;18.17;57.18;100645.72;5050644;28;20187;-62
2023/04/18 03:19:37;;;;;;;5.60;3.90;;;;;;;18.15;56.74;100651.00;5043818;28;20218;-62
2023/04/18 03:22:02;;;;;;;5.77;3.73;;;;;;;18.17;56.95;100662.88;5045112;28;20206;-62
2023/04/18 03:24:28;;;;;;;5.80;4.27;;;;;;;18.14;56.86;100657.91;5045679;28;20188;-62
2023/04/18 03:26:53;;;;;;;4.90;3.27;;;;;;;18.16;56.50;100648.97;5034937;28;20180;-62
2023/04/18 03:29:19;;;;;;;6.37;4.20;;;;;;;18.14;56.84;100657.06;5052309;28;20187;-62
2023/04/18 03:31:44;;;;;;;4.27;3.33;;;;;;;18.15;56.55;100653.84;5044090;28;20200;-62
2023/04/18 03:34:10;;;;;;;6.13;4.07;;;;;;;18.15;57.02;100648.13;5043172;28;20368;-62
2023/04/18 03:36:35;;;;;;;7.07;4.73;;;;;;;18.19;56.53;100643.34;5036443;28;20187;-62
2023/04/18 03:39:01;;;;;;;5.30;3.87;;;;;;;18.17;56.52;100645.72;5031803;28;20176;-62
2023/04/18 03:41:27;;;;;;;4.93;3.53;;;;;;;18.16;56.69;100655.50;5034637;28;20243;-62
2023/04/18 03:43:52;;;;;;;5.53;3.87;;;;;;;18.18;56.52;100647.41;5032685;28;20180;-62
2023/04/18 03:46:18;;;;;;;4.20;3.70;;;;;;;18.20;56.35;100644.16;5030988;28;20688;-62
2023/04/18 03:48:43;;;;;;;5.53;3.73;;;;;;;18.21;56.44;100638.06;5031555;28;20195;-62
2023/04/18 03:51:09;;;;;;;5.10;3.20;;;;;;;18.21;56.68;100640.94;5043013;28;20203;-62
2023/04/18 03:53:35;;;;;;;4.40;3.40;;;;;;;18.23;56.26;100640.56;5052255;28;20226;-62
2023/04/18 03:56:00;;;;;;;7.03;3.50;;;;;;;18.24;56.39;100645.94;5047637;28;20184;-62
2023/04/18 03:58:26;;;;;;;5.33;4.07;;;;;;;18.27;56.38;100644.34;5052614;28;20164;-62
2023/04/18 04:00:51;;;;;;;5.73;3.77;;;;;;;18.29;56.25;100637.06;5035856;28;20222;-62
2023/04/18 04:03:18;;;;;;;7.30;3.80;;;;;;;18.28;56.26;100644.00;5045649;28;20182;-62
2023/04/18 04:05:43;;;;;;;7.37;4.10;;;;;;;18.27;56.56;100639.44;5050377;28;20180;-62
2023/04/18 04:08:09;;;;;;;7.07;3.70;;;;;;;18.28;56.39;100641.13;5043736;28;20524;-62
2023/04/18 04:10:34;;;;;;;4.80;3.27;;;;;;;18.27;56.46;100645.16;5052549;28;20188;-62
2023/04/18 04:13:00;;;;;;;5.30;3.17;;;;;;;18.26;56.28;100651.28;5033689;28;20179;-62
2023/04/18 04:15:25;;;;;;;4.03;3.07;;;;;;;18.24;56.48;100645.09;5032653;28;20177;-62
2023/04/18 04:17:51;;;;;;;5.57;3.43;;;;;;;18.22;56.43;100650.34;5033076;28;20188;-62
2023/04/18 04:20:21;;;;;;;5.20;3.63;;;;;;;18.20;56.67;100647.84;5031653;28;20188;-62
2023/04/18 04:22:47;;;;;;;5.23;3.70;;;;;;;18.19;57.06;100648.22;5031977;28;20177;-62
2023/04/18 04:25:13;;;;;;;5.80;3.67;;;;;;;18.18;56.54;100653.13;5029905;28;20427;-62
2023/04/18 04:27:38;;;;;;;5.17;3.43;;;;;;;18.19;56.85;100651.06;5041806;28;20191;-62
2023/04/18 04:30:05;;;;;;;5.40;3.57;;;;;;;18.20;56.88;100656.44;5048344;28;20254;-62
2023/04/18 04:32:31;;;;;;;5.07;3.27;;;;;;;18.20;57.10;100655.59;5008051;28;20176;-61
2023/04/18 04:34:57;;;;;;;5.00;3.53;;;;;;;18.18;56.65;100655.97;5008161;28;20416;-62
2023/04/18 04:37:23;;;;;;;6.03;3.73;;;;;;;18.20;56.90;100664.16;5033662;28;20445;-62
2023/04/18 04:39:48;;;;;;;6.23;3.73;;;;;;;18.21;56.94;100657.28;5030679;28;20172;-62
2023/04/18 04:42:14;;;;;;;7.50;3.70;;;;;;;18.19;57.06;100665.38;5030905;28;20179;-62
2023/04/18 04:44:42;;;;;;;5.07;3.50;;;;;;;18.16;57.24;100663.28;5034588;28;20180;-62
2023/04/18 04:47:08;;;;;;;5.97;4.00;;;;;;;18.18;57.07;100667.41;5031756;28;20171;-62
2023/04/18 04:49:33;;;;;;;5.00;3.37;;;;;;;18.18;57.05;100670.28;5028913;28;20958;-62
2023/04/18 04:51:58;;;;;;;5.10;3.77;;;;;;;18.16;56.98;100669.78;5027881;28;20168;-61
2023/04/18 04:54:24;;;;;;;5.67;3.77;;;;;;;18.13;57.04;100681.13;5029538;28;20184;-62
2023/04/18 04:56:50;;;;;;;4.70;3.77;;;;;;;18.10;57.34;100685.56;5035574;28;20192;-61
2023/04/18 04:59:16;;;;;;;5.90;3.30;;;;;;;18.12;57.30;100680.28;5047142;28;20619;-62
2023/04/18 05:01:41;;;;;;;4.40;3.60;;;;;;;18.10;57.32;100677.00;5049714;28;20195;-62
2023/04/18 05:04:07;;;;;;;5.50;3.47;;;;;;;18.09;57.42;100686.78;5055441;28;20597;-62
2023/04/18 05:06:32;;;;;;;4.57;3.20;;;;;;;18.11;57.30;100675.78;5052269;28;20172;-62
2023/04/18 05:08:59;;;;;;;5.63;3.70;;;;;;;18.15;56.93;100678.72;5054141;28;20231;-62
2023/04/18 05:11:25;;;;;;;4.63;3.20;;;;;;;18.14;57.17;100674.22;5055400;28;20199;-62
2023/04/18 05:13:50;;;;;;;5.80;3.30;;;;;;;18.13;57.10;100689.72;5052726;28;20494;-62
2023/04/18 05:16:16;;;;;;;4.63;3.30;;;;;;;18.13;57.28;100681.97;5052474;28;20179;-62
2023/04/18 05:18:41;;;;;;;4.13;2.97;;;;;;;18.16;56.86;100683.28;5052865;28;20609;-62
2023/04/18 05:21:07;;;;;;;4.57;3.23;;;;;;;18.17;56.89;100687.78;5032782;28;20161;-62
2023/04/18 05:23:35;;;;;;;4.87;3.33;;;;;;;18.21;56.98;100691.56;5035237;28;20192;-62
2023/04/18 05:26:02;;;;;;;4.13;3.00;;;;;;;18.20;56.85;100690.72;5050383;28;20211;-62
2023/04/18 05:28:27;;;;;;;5.30;3.23;;;;;;;18.19;56.69;100691.94;5054601;28;20403;-62
2023/04/18 05:30:59;;;;;;;4.40;3.30;;;;;;;18.18;56.88;100684.56;5042093;28;20809;-62
2023/04/18 05:33:28;;;;;;;4.93;3.10;;;;;;;18.20;56.95;100690.72;5034923;28;20168;-62
2023/04/18 05:35:54;;;;;;;5.63;3.63;;;;;;;18.23;56.62;100690.00;5035904;28;20469;-62
2023/04/18 05:38:20;;;;;;;4.30;3.43;;;;;;;18.23;56.61;100684.28;5032942;28;20422;-61
2023/04/18 05:40:45;;;;;;;3.90;2.80;;;;;;;18.24;56.91;100685.94;5037392;28;20423;-62
2023/04/18 05:43:10;;;;;;;4.60;3.60;;;;;;;18.23;56.72;100689.16;5034892;28;20176;-62
2023/04/18 05:45:36;;;;;;;5.13;2.93;;;;;;;18.21;56.90;100685.84;5037283;28;20241;-62
2023/04/18 05:48:01;;;;;;;5.00;3.47;;;;;;;18.20;56.84;100684.16;5036012;28;20164;-62
2023/04/18 05:50:27;;;;;;;4.60;3.00;;;;;;;18.19;56.77;100691.94;5035700;28;20244;-62
2023/04/18 05:52:52;;;;;;;7.60;3.10;;;;;;;18.17;56.84;100688.59;5038075;28;20852;-62
2023/04/18 05:55:18;;;;;;;3.80;2.93;;;;;;;18.17;56.85;100690.63;5038824;28;20176;-62
2023/04/18 05:57:43;;;;;;;4.13;3.20;;;;;;;18.14;57.08;100675.06;5036944;28;20161;-62
2023/04/18 06:00:12;;;;;;;4.33;3.23;;;;;;;18.16;56.85;100671.84;5034966;28;20169;-62
2023/04/18 06:02:38;;;;;;;4.57;3.47;;;;;;;18.14;57.06;100674.22;5051049;28;20175;-62
2023/04/18 06:05:04;;;;;;;5.27;3.50;;;;;;;18.13;57.25;100667.69;5042471;28;20449;-62
2023/04/18 06:07:29;;;;;;;4.33;3.10;;;;;;;18.14;57.21;100672.19;5053371;28;20603;-62
2023/04/18 06:09:55;;;;;;;5.13;3.53;;;;;;;18.12;57.03;100674.59;5053359;28;20204;-62
2023/04/18 06:12:20;;;;;;;3.90;3.30;;;;;;;18.14;57.25;100675.06;5055934;28;20175;-62
2023/04/18 06:14:46;;;;;;;4.73;3.20;;;;;;;18.18;57.10;100669.44;5037640;28;20191;-62
2023/04/18 06:17:12;;;;;;;6.10;3.80;;;;;;;18.16;57.33;100677.56;5025625;28;20180;-62
2023/04/18 06:19:38;;;;;;;3.83;3.00;;;;;;;18.21;56.95;100675.22;5038502;28;20184;-62
2023/04/18 06:22:04;;;;;;;4.50;3.57;;;;;;;18.21;56.83;100692.38;5033063;28;20173;-62
2023/04/18 06:24:29;;;;;;;4.73;3.30;;;;;;;18.20;56.86;100699.28;5034883;28;20438;-62
2023/04/18 06:26:56;;;;;;;5.10;3.10;;;;;;;18.19;56.83;100711.94;5049837;28;21039;-62
2023/04/18 06:29:22;;;;;;;4.30;3.03;;;;;;;18.19;57.01;100722.53;5049461;28;20671;-62
2023/04/18 06:31:49;;;;;;;5.10;3.43;;;;;;;18.19;57.14;100731.94;5020104;28;20430;-61
2023/04/18 06:34:15;;;;;;;5.03;2.97;;;;;;;18.17;57.01;100725.75;5015268;28;20598;-61
2023/04/18 06:36:40;;;;;;;4.10;3.10;;;;;;;18.16;57.16;100732.66;5050151;28;20430;-61
2023/04/18 06:39:06;;;;;;;4.67;3.17;;;;;;;18.13;57.17;100730.56;5045078;28;20489;-61
2023/04/18 06:41:31;;;;;;;4.67;3.17;;;;;;;18.13;57.43;100721.97;5031304;28;20161;-61
2023/04/18 06:43:57;;;;;;;4.40;3.40;;;;;;;18.10;57.26;100725.56;5031409;28;20161;-61
2023/04/18 06:46:22;;;;;;;5.57;3.30;;;;;;;18.10;57.35;100736.16;5022390;28;20184;-61
2023/04/18 06:48:48;;;;;;;4.23;3.10;;;;;;;18.11;57.41;100737.84;5031701;28;20185;-61
2023/04/18 06:51:13;;;;;;;5.50;2.87;;;;;;;18.13;57.14;100744.84;5028094;28;20683;-61
2023/04/18 06:53:39;;;;;;;3.87;2.80;;;;;;;18.14;57.47;100737.09;5021220;28;20518;-61
2023/04/18 06:56:05;;;;;;;4.90;3.43;;;;;;;18.17;57.14;100730.66;5031345;28;20796;-61
2023/04/18 06:58:30;;;;;;;4.53;3.00;;;;;;;18.15;57.02;100725.28;5020517;28;20175;-61
2023/04/18 07:00:55;;;;;;;5.20;3.10;;;;;;;18.16;57.15;100726.13;5028928;28;20667;-61
2023/04/18 07:03:21;;;;;;;4.37;3.20;;;;;;;18.16;57.05;100724.09;5014723;28;20621;-61
2023/04/18 07:05:46;;;;;;;5.70;2.90;;;;;;;18.16;56.99;100729.81;5020285;28;20176;-62
2023/04/18 07:08:12;;;;;;;4.37;3.00;;;;;;;18.19;57.23;100722.53;5034505;28;20224;-61
2023/04/18 07:10:37;;;;;;;5.60;3.57;;;;;;;18.21;56.84;100718.09;5025308;28;20204;-62
2023/04/18 07:13:03;;;;;;;3.63;3.00;;;;;;;18.22;57.04;100708.31;5043604;28;20654;-62
2023/04/18 07:15:28;;;;;;;3.90;2.73;;;;;;;18.23;56.93;100715.72;5051083;28;20268;-62
2023/04/18 07:17:54;;;;;;;4.73;3.13;;;;;;;18.23;56.70;100724.28;5046332;28;20187;-62
2023/04/18 07:20:20;;;;;;;4.50;3.37;;;;;;;18.22;56.75;100721.78;5029404;28;20184;-62
2023/04/18 07:22:46;;;;;;;6.73;3.37;;;;;;;18.21;56.98;100720.94;5030619;28;20256;-62
2023/04/18 07:25:12;;;;;;;3.50;2.90;;;;;;;18.19;56.86;100729.06;5030092;28;20222;-61
2023/04/18 07:27:37;;;;;;;4.57;3.20;;;;;;;18.18;57.05;100733.13;5037623;28;20929;-61
2023/04/18 07:30:03;;;;;;;4.40;2.90;;;;;;;18.18;57.08;100730.28;5020063;28;20196;-61
2023/04/18 07:32:29;;;;;;;4.03;2.90;;;;;;;18.15;57.11;100735.88;5022787;28;20508;-62
2023/04/18 07:34:56;;;;;;;5.47;3.13;;;;;;;18.13;57.00;100733.41;5041674;28;20210;-61
2023/04/18 07:37:21;;;;;;;4.53;2.80;;;;;;;18.11;57.56;100738.66;5021188;28;20191;-62
2023/04/18 07:39:47;;;;;;;4.60;2.80;;;;;;;18.13;57.46;100738.28;5014248;28;21158;-61
2023/04/18 07:42:13;;;;;;;4.77;3.23;;;;;;;18.11;57.15;100729.25;5025453;28;20199;-61
2023/04/18 07:44:38;;;;;;;5.83;3.40;;;;;;;18.13;57.34;100736.28;5036185;28;20212;-61
2023/04/18 07:47:05;;;;;;;4.10;3.40;;;;;;;18.18;57.71;100733.13;5019216;28;20183;-61
2023/04/18 07:49:31;;;;;;;4.37;2.90;;;;;;;18.15;57.36;100739.56;5016469;28;20204;-61
2023/04/18 07:51:56;;;;;;;4.60;3.03;;;;;;;18.16;57.26;100737.56;5037369;28;20442;-61
2023/04/18 07:54:22;;;;;;;4.97;3.50;;;;;;;18.15;57.32;100735.88;5049772;28;20176;-62
2023/04/18 07:56:47;;;;;;;6.20;3.27;;;;;;;18.14;57.74;100737.09;5034275;28;20191;-61
2023/04/18 07:59:12;;;;;;;15.17;7.83;;;;;;;17.90;53.26;100745.84;5024516;28;20208;-61
2023/04/18 08:01:38;;;;;;;11.40;8.80;;;;;;;17.68;53.37;100749.25;5029272;28;20192;-61
2023/04/18 08:04:04;;;;;;;18.40;12.07;;;;;;;17.93;55.59;100745.94;5025826;28;20184;-62
2023/04/18 08:06:29;;;;;;;18.57;12.93;;;;;;;18.39;55.26;100750.88;5048029;28;20156;-62
2023/04/18 08:08:55;;;;;;;23.87;11.50;;;;;;;18.45;54.41;100757.13;5038444;28;20232;-67
2023/04/18 08:11:20;;;;;;;18.53;11.00;;;;;;;18.43;50.81;100751.78;5027339;28;20196;-62
2023/04/18 08:13:46;;;;;;;17.07;8.97;;;;;;;18.85;50.80;100752.00;5024972;28;20191;-62
2023/04/18 08:16:11;;;;;;;15.60;9.43;;;;;;;19.23;50.74;100750.09;5026408;28;20179;-61
2023/04/18 08:18:36;;;;;;;14.47;8.43;;;;;;;19.55;53.02;100748.75;5023556;28;20279;-62
2023/04/18 08:21:02;;;;;;;16.07;8.40;;;;;;;19.64;52.26;100751.38;5025451;28;20193;-62
2023/04/18 08:23:28;;;;;;;14.80;7.40;;;;;;;19.78;51.94;100734.50;5012208;28;20177;-62
2023/04/18 08:25:53;;;;;;;12.63;7.07;;;;;;;19.75;52.21;100730.34;5012254;28;20687;-62
2023/04/18 08:28:19;;;;;;;11.47;6.60;;;;;;;19.80;52.88;100738.63;5015634;28;20185;-62
2023/04/18 08:30:47;;;;;;;14.23;6.23;;;;;;;19.82;52.55;100741.94;5015309;28;20203;-62
2023/04/18 08:33:14;;;;;;;8.93;6.43;;;;;;;19.49;53.33;100744.53;5030054;28;20648;-62
2023/04/18 08:35:39;;;;;;;18.10;7.10;;;;;;;19.61;53.95;100737.84;5028450;28;20781;-61
2023/04/18 08:38:05;;;;;;;9.10;6.57;;;;;;;19.72;53.87;100745.41;5027118;28;20395;-62
2023/04/18 08:40:30;;;;;;;10.23;6.80;;;;;;;19.76;53.96;100757.78;5030007;28;20560;-62
2023/04/18 08:42:56;;;;;;;13.93;7.33;;;;;;;19.44;55.42;100764.88;5040857;28;20192;-62
2023/04/18 08:45:23;;;;;;;16.10;7.70;;;;;;;19.41;55.87;100770.53;5007630;28;20181;-62
2023/04/18 08:47:48;;;;;;;12.57;7.00;;;;;;;19.68;55.72;100764.59;5015185;28;20172;-62
2023/04/18 08:50:13;;;;;;;13.40;6.63;;;;;;;19.64;56.01;100757.09;5027101;28;21278;-62
2023/04/18 08:52:39;;;;;;;12.33;7.67;;;;;;;19.21;57.33;100761.03;5027372;28;20835;-62
2023/04/18 08:55:06;;;;;;;14.90;7.37;;;;;;;19.16;57.34;100755.63;5025432;28;20864;-62
2023/04/18 08:57:32;;;;;;;9.67;7.37;;;;;;;19.08;54.91;100755.84;5014063;28;20184;-62
2023/04/18 08:59:59;;;;;;;12.50;8.57;;;;;;;19.06;52.25;100761.94;5007020;28;20505;-62
2023/04/18 09:02:41;;;;;;;14.63;8.80;;;;;;;18.88;51.71;100754.97;5021132;28;20455;-62
2023/04/18 09:05:18;;;;;;;17.40;8.70;;;;;;;18.74;50.97;100748.91;5041159;28;20445;-62
2023/04/18 09:07:44;;;;;;;14.10;7.80;;;;;;;18.84;51.23;100756.91;5046243;28;20476;-62
2023/04/18 09:10:10;;;;;;;10.47;6.93;;;;;;;18.89;51.21;100756.63;5045498;28;20450;-62
2023/04/18 09:12:41;;;;;;;12.70;7.90;;;;;;;18.86;51.32;100745.91;5029638;28;20176;-61
2023/04/18 09:15:13;;;;;;;12.87;7.77;;;;;;;18.68;51.62;100753.25;5023718;28;20226;-62
2023/04/18 09:17:42;;;;;;;10.10;7.23;;;;;;;18.54;51.94;100758.59;5027801;28;20481;-61
2023/04/18 09:20:11;;;;;;;9.57;6.60;;;;;;;18.59;52.26;100760.34;5036437;28;20434;-61
2023/04/18 09:22:47;;;;;;;14.43;6.80;;;;;;;18.54;52.01;100755.75;5008122;28;20418;-62
2023/04/18 09:25:46;;;;;;;14.70;6.73;;;;;;;18.50;52.00;100757.69;5022731;28;20473;-61
2023/04/18 09:28:28;;;;;;;10.80;6.27;;;;;;;18.45;52.89;100752.25;5025997;28;20804;-61
2023/04/18 09:31:08;;;;;;;10.63;6.47;;;;;;;18.49;52.29;100758.03;5023247;28;20446;-61
2023/04/18 09:33:35;;;;;;;8.90;6.23;;;;;;;18.47;52.72;100752.69;5025478;28;20948;-61
2023/04/18 09:36:17;;;;;;;12.20;6.90;;;;;;;18.41;53.77;100765.63;5026796;28;20447;-61
2023/04/18 09:38:42;;;;;;;15.63;6.67;;;;;;;18.40;53.49;100751.69;5023079;28;20431;-61
2023/04/18 09:41:09;;;;;;;13.90;7.43;;;;;;;18.37;53.73;100758.97;5026031;28;20808;-61
2023/04/18 09:43:35;;;;;;;21.50;7.57;;;;;;;18.39;53.91;100755.75;5025432;28;20958;-61
2023/04/18 09:46:00;;;;;;;14.17;7.00;;;;;;;18.43;54.28;100754.66;5020579;28;20435;-61
2023/04/18 09:48:26;;;;;;;17.03;7.70;;;;;;;18.39;54.50;100759.44;5014292;28;20195;-61
2023/04/18 09:50:51;;;;;;;14.80;6.70;;;;;;;18.39;54.67;100762.31;5030527;28;20196;-61
2023/04/18 09:53:17;;;;;;;13.67;6.90;;;;;;;18.41;54.57;100764.81;5012210;28;20193;-61
2023/04/18 09:55:43;;;;;;;12.23;6.57;;;;;;;18.44;54.51;100764.88;5010733;28;20708;-61
2023/04/18 09:58:08;;;;;;;10.53;6.43;;;;;;;18.49;54.45;100761.75;5021406;28;20431;-61
2023/04/18 10:00:34;;;;;;;14.40;5.93;;;;;;;18.50;54.59;100771.97;5031039;28;20176;-61
2023/04/18 10:03:07;;;;;;;14.43;6.50;;;;;;;18.53;54.54;100771.25;5049997;28;20172;-61
2023/04/18 10:05:33;;;;;;;12.83;6.30;;;;;;;18.53;54.61;100765.53;5050954;28;20199;-61
2023/04/18 10:07:59;;;;;;;13.63;6.90;;;;;;;18.52;54.73;100763.84;5037544;28;20565;-61
2023/04/18 10:10:25;;;;;;;15.63;6.27;;;;;;;18.52;54.86;100763.03;5031915;28;20455;-61
2023/04/18 10:12:55;;;;;;;13.00;6.50;;;;;;;18.48;55.17;100765.81;5034187;28;20186;-61
2023/04/18 10:15:23;;;;;;;14.70;5.90;;;;;;;18.46;55.11;100759.63;5029989;28;20644;-61
2023/04/18 10:17:56;;;;;;;12.27;5.57;;;;;;;18.44;55.22;100759.16;5012909;28;20920;-61
2023/04/18 10:20:22;;;;;;;12.43;5.87;;;;;;;18.43;55.57;100762.38;5045011;28;20430;-61
2023/04/18 10:22:48;;;;;;;11.40;5.90;;;;;;;18.40;55.59;100763.13;5051790;28;20421;-61
2023/04/18 10:25:33;;;;;;;15.40;6.47;;;;;;;18.39;55.62;100767.19;5046564;28;20441;-61
2023/04/18 10:28:00;;;;;;;10.90;6.20;;;;;;;18.37;55.98;100756.09;5051560;28;20234;-61
2023/04/18 10:30:45;;;;;;;12.93;5.87;;;;;;;18.37;56.02;100758.97;5047627;28;20455;-61
2023/04/18 10:34:06;;;;;;;10.53;5.37;;;;;;;18.37;55.83;100756.09;5013934;28;20538;-61
2023/04/18 10:36:32;;;;;;;12.07;5.13;;;;;;;18.36;56.37;100757.31;5029397;28;20466;-61
2023/04/18 10:39:20;;;;;;;9.30;5.17;;;;;;;18.36;56.41;100756.50;5016584;28;20986;-61
2023/04/18 10:41:49;;;;;;;14.77;6.53;;;;;;;18.35;56.02;100749.94;5033156;28;20192;-61
2023/04/18 10:44:18;;;;;;;14.37;5.97;;;;;;;18.33;56.42;100742.94;5031213;28;20877;-61
2023/04/18 10:46:52;;;;;;;12.83;6.30;;;;;;;18.34;56.44;100742.56;5031414;28;20427;-61
2023/04/18 10:49:25;;;;;;;9.83;5.20;;;;;;;18.31;56.57;100742.47;5034283;28;20438;-61
2023/04/18 10:51:54;;;;;;;10.37;5.20;;;;;;;18.33;56.54;100738.06;5049793;28;21028;-61
2023/04/18 10:54:36;;;;;;;13.33;5.60;;;;;;;18.42;56.09;100730.09;5049298;28;20472;-61
2023/04/18 10:57:02;;;;;;;10.13;5.40;;;;;;;18.43;56.26;100728.09;5032969;28;20431;-61
2023/04/18 10:59:31;;;;;;;13.93;6.00;;;;;;;18.44;56.27;100735.47;5029578;28;20415;-61
2023/04/18 11:02:28;;;;;;;13.97;5.73;;;;;;;18.45;55.96;100732.22;5018623;28;20463;-61
2023/04/18 11:04:58;;;;;;;8.20;5.33;;;;;;;18.46;56.39;100733.06;5024286;28;20879;-61
2023/04/18 11:07:34;;;;;;;15.53;6.03;;;;;;;18.44;56.24;100721.16;5029448;28;20474;-61
2023/04/18 11:10:00;;;;;;;9.47;5.30;;;;;;;18.43;56.28;100714.63;5030561;28;20469;-61
2023/04/18 11:12:28;;;;;;;13.13;5.47;;;;;;;18.38;56.55;100706.34;5050462;28;20539;-61
2023/04/18 11:14:54;;;;;;;11.20;5.80;;;;;;;18.36;56.82;100705.84;5049956;28;20517;-61
2023/04/18 11:17:32;;;;;;;13.00;5.33;;;;;;;18.36;56.76;100703.00;5032780;28;20982;-61
2023/04/18 11:20:10;;;;;;;9.23;4.93;;;;;;;18.35;56.72;100703.38;5029176;28;20180;-61
2023/04/18 11:22:49;;;;;;;9.07;5.63;;;;;;;18.34;57.16;100719.72;5032786;28;20439;-61